Dnipro Lpg — UXEE — position and weather

sailwx.info

Track history (hours):
 
Tides and Currents Weather Stations Pressure Air Temp Water Temp Dewpoint Dewpoint Depression Visibility Wind Speed Wind Dir Waves Ship Positions

Dnipro Lpg

Last reported at 2018-Jul-18 06:01 UTC. Time now 2018-Jul-19 01:38 UTC.
Position N 45°23' E 029°36'.

Length 92 m; draft 2.8 m.

Type: Ship (hazmat cat A). MMSI: 272773000.

Date/timePositionNaut miles runAvg speedWind from/ knotsBaromVisibWave heightAir tempDewpointWater temp
2018-Jul-18 06:01N 45°23' E 029°36'0 1.4
2018-Jul-18 05:57N 45°23' E 029°36'2 4.8
2018-Jul-18 05:30N 45°21' E 029°38'3 5.1
2018-Jul-18 04:57N 45°21' E 029°42'3 5.6
2018-Jul-18 04:30N 45°20' E 029°46'20 6.6
2018-Jul-18 01:29N 45°34' E 030°06'25 7.2
2018-Jul-17 22:00N 45°54' E 030°29'3 6.8
2018-Jul-17 21:30N 45°57' E 030°32'3 6.9
2018-Jul-17 21:00N 45°59' E 030°35'6 6.6
2018-Jul-17 20:06N 46°03' E 030°41'2 6.5
2018-Jul-17 19:50N 46°05' E 030°43'4 6.4
2018-Jul-17 19:08N 46°08' E 030°46'1 6.5
2018-Jul-17 18:59N 46°09' E 030°47'5 6.8
2018-Jul-17 18:15N 46°13' E 030°52'2 6.9
2018-Jul-17 18:00N 46°14' E 030°53'3 7.0
2018-Jul-17 17:30N 46°17' E 030°56'4 7.2
2018-Jul-17 17:00N 46°20' E 030°59'6 7.2
2018-Jul-17 16:07N 46°25' E 031°05'1 7.4
2018-Jul-17 16:00N 46°25' E 031°06'5 7.3
2018-Jul-17 15:16N 46°28' E 031°13'2 7.3
2018-Jul-17 14:58N 46°30' E 031°15'24 6.2
2018-Jul-17 11:04N 46°36' E 031°49'1 6.6
2018-Jul-17 10:58N 46°36' E 031°50'3 6.4
2018-Jul-17 10:30N 46°38' E 031°54'3 6.1
2018-Jul-17 10:00N 46°40' E 031°56'3 6.5
2018-Jul-17 09:30N 46°44' E 031°56'3 6.5
2018-Jul-17 09:00N 46°46' E 031°53'3 6.6
2018-Jul-17 08:30N 46°49' E 031°55'3 6.9
2018-Jul-17 08:00N 46°52' E 031°58'3 6.9
2018-Jul-17 07:30N 46°55' E 032°01'2 4.2
2018-Jul-17 07:01N 46°57' E 031°59'0 0.1
2018-Jul-17 06:28N 46°57' E 031°59'0 0.0
2018-Jul-17 05:59N 46°57' E 031°59'0 0.0
2018-Jul-17 05:29N 46°57' E 031°59'0 0.0
2018-Jul-17 04:59N 46°57' E 031°59'0 0.0
2018-Jul-17 04:29N 46°57' E 031°59'0 0.0
2018-Jul-17 03:59N 46°57' E 031°59'0 0.0
2018-Jul-17 03:29N 46°57' E 031°59'0 0.0
2018-Jul-17 02:59N 46°57' E 031°59'0 0.0
2018-Jul-17 02:29N 46°57' E 031°59'0 0.0
2018-Jul-17 01:59N 46°57' E 031°59'0 0.0
2018-Jul-17 01:29N 46°57' E 031°59'0 0.0
2018-Jul-17 00:59N 46°57' E 031°59'0 0.0
2018-Jul-17 00:29N 46°57' E 031°59'0 0.0
2018-Jul-16 23:29N 46°57' E 031°59'0 0.0
2018-Jul-16 22:59N 46°57' E 031°59'0 0.0
2018-Jul-16 22:29N 46°57' E 031°59'0 0.0
2018-Jul-16 21:59N 46°57' E 031°59'0 0.0
2018-Jul-16 21:29N 46°57' E 031°59'0 0.0
2018-Jul-16 20:59N 46°57' E 031°59'0 0.0
2018-Jul-16 20:29N 46°57' E 031°59'0 0.0
2018-Jul-16 19:59N 46°57' E 031°59'0 0.0
2018-Jul-16 19:29N 46°57' E 031°59'0 0.0
2018-Jul-16 18:59N 46°57' E 031°59'0 0.0
2018-Jul-16 18:29N 46°57' E 031°59'0 0.0
2018-Jul-16 17:59N 46°57' E 031°59'0 0.0
2018-Jul-16 17:29N 46°57' E 031°59'0 0.0
2018-Jul-16 16:59N 46°57' E 031°59'0 0.0
2018-Jul-16 16:29N 46°57' E 031°59'0 0.0
2018-Jul-16 15:59N 46°57' E 031°59'0 0.0
2018-Jul-16 15:29N 46°57' E 031°59'0 0.0
2018-Jul-16 14:59N 46°57' E 031°59'0 0.0
2018-Jul-16 14:29N 46°57' E 031°59'0 0.0
2018-Jul-16 13:53N 46°57' E 031°59'0 0.0
2018-Jul-16 13:29N 46°57' E 031°59'0 0.0
2018-Jul-16 12:59N 46°57' E 031°59'0 0.0
2018-Jul-16 12:29N 46°57' E 031°59'0 0.0
2018-Jul-16 11:59N 46°57' E 031°59'0 0.0
2018-Jul-16 11:29N 46°57' E 031°59'0 0.0
2018-Jul-16 10:59N 46°57' E 031°59'0 0.0
2018-Jul-16 10:29N 46°57' E 031°59'0 0.0
2018-Jul-16 09:59N 46°57' E 031°59'0 0.0
2018-Jul-16 09:29N 46°57' E 031°59'0 0.0
2018-Jul-16 08:59N 46°57' E 031°59'0 0.0
2018-Jul-16 08:29N 46°57' E 031°59'0 0.0
2018-Jul-16 07:59N 46°57' E 031°59'0 0.0
2018-Jul-16 07:29N 46°57' E 031°59'0 0.0
2018-Jul-16 06:59N 46°57' E 031°59'0 0.0
2018-Jul-16 06:29N 46°57' E 031°59'0 0.0
2018-Jul-16 05:59N 46°57' E 031°59'0 0.0
2018-Jul-16 05:29N 46°57' E 031°59'0 0.0
2018-Jul-16 04:59N 46°57' E 031°59'0 0.0
2018-Jul-16 04:29N 46°57' E 031°59'0 0.0
2018-Jul-16 03:59N 46°57' E 031°59'0 0.0
2018-Jul-16 03:29N 46°57' E 031°59'0 0.0
2018-Jul-16 02:59N 46°57' E 031°59'0 0.0
2018-Jul-16 02:29N 46°57' E 031°59'0 0.0
2018-Jul-16 01:59N 46°57' E 031°59'0 0.0
2018-Jul-16 01:29N 46°57' E 031°59'0 0.0
2018-Jul-16 00:59N 46°57' E 031°59'0 0.0
2018-Jul-16 00:29N 46°57' E 031°59'0 0.0
2018-Jul-15 23:59N 46°57' E 031°59'0 0.0
2018-Jul-15 23:29N 46°57' E 031°59'0 0.0
2018-Jul-15 22:56N 46°57' E 031°59'0 0.0
2018-Jul-15 22:29N 46°57' E 031°59'0 0.0
2018-Jul-15 21:59N 46°57' E 031°59'0 0.0
2018-Jul-15 21:29N 46°57' E 031°59'0 0.0
2018-Jul-15 20:59N 46°57' E 031°59'0 0.0
2018-Jul-15 20:29N 46°57' E 031°59'0 0.0
2018-Jul-15 19:59N 46°57' E 031°59'0 0.0
2018-Jul-15 19:29N 46°57' E 031°59'0 0.0
2018-Jul-15 18:59N 46°57' E 031°59'0 0.0
2018-Jul-15 18:29N 46°57' E 031°59'0 0.0
2018-Jul-15 17:59N 46°57' E 031°59'0 0.0
2018-Jul-15 17:29N 46°57' E 031°59'0 0.0
2018-Jul-15 16:59N 46°57' E 031°59'0 0.0
2018-Jul-15 16:29N 46°57' E 031°59'0 0.0
2018-Jul-15 15:59N 46°57' E 031°59'0 0.0
2018-Jul-15 15:29N 46°57' E 031°59'0 0.0
2018-Jul-15 14:59N 46°57' E 031°59'0 0.0
2018-Jul-15 14:23N 46°57' E 031°59'0 0.0
2018-Jul-15 13:59N 46°57' E 031°59'0 0.0
2018-Jul-15 13:29N 46°57' E 031°59'0 0.0
2018-Jul-15 12:59N 46°57' E 031°59'0 0.0
2018-Jul-15 12:29N 46°57' E 031°59'0 0.0
2018-Jul-15 11:59N 46°57' E 031°59'0 0.0
2018-Jul-15 11:26N 46°57' E 031°59'0 0.0
2018-Jul-15 10:59N 46°57' E 031°59'0 0.0
2018-Jul-15 10:29N 46°57' E 031°59'0 0.0
2018-Jul-15 09:53N 46°57' E 031°59'0 0.0
2018-Jul-15 09:29N 46°57' E 031°59'0 0.0
2018-Jul-15 08:59N 46°57' E 031°59'0 0.0
2018-Jul-15 08:29N 46°57' E 031°59'0 0.0
2018-Jul-15 07:59N 46°57' E 031°59'0 0.0
2018-Jul-15 07:29N 46°57' E 031°59'0 0.0
2018-Jul-15 06:59N 46°57' E 031°59'0 0.0
2018-Jul-15 06:29N 46°57' E 031°59'0 0.0
2018-Jul-15 05:59N 46°57' E 031°59'0 0.0
2018-Jul-15 05:29N 46°57' E 031°59'0 0.0
2018-Jul-15 04:59N 46°57' E 031°59'0 0.0
2018-Jul-15 04:29N 46°57' E 031°59'0 0.0
2018-Jul-15 03:59N 46°57' E 031°59'0 0.0
2018-Jul-15 03:29N 46°57' E 031°59'0 0.0
2018-Jul-15 02:59N 46°57' E 031°59'0 0.0
2018-Jul-15 02:29N 46°57' E 031°59'0 0.0
2018-Jul-15 01:59N 46°57' E 031°59'0 0.0
2018-Jul-15 01:29N 46°57' E 031°59'0 0.0
2018-Jul-15 00:59N 46°57' E 031°59'0 0.0
2018-Jul-15 00:29N 46°57' E 031°59'0 0.0
2018-Jul-14 23:59N 46°57' E 031°59'0 0.0
2018-Jul-14 23:29N 46°57' E 031°59'0 0.0
2018-Jul-14 22:59N 46°57' E 031°59'0 0.0
2018-Jul-14 22:29N 46°57' E 031°59'0 0.0
2018-Jul-14 21:59N 46°57' E 031°59'0 0.0
2018-Jul-14 21:29N 46°57' E 031°59'0 0.0
2018-Jul-14 20:59N 46°57' E 031°59'0 0.0
2018-Jul-14 20:29N 46°57' E 031°59'0 0.0
2018-Jul-14 19:59N 46°57' E 031°59'0 0.0
2018-Jul-14 19:29N 46°57' E 031°59'0 0.0
2018-Jul-14 18:59N 46°57' E 031°59'0 0.0
2018-Jul-14 18:29N 46°57' E 031°59'0 0.0
2018-Jul-14 17:59N 46°57' E 031°59'0 0.0
2018-Jul-14 17:29N 46°57' E 031°59'0 0.0
2018-Jul-14 16:59N 46°57' E 031°59'0 0.0
2018-Jul-14 16:29N 46°57' E 031°59'0 0.0
2018-Jul-14 15:59N 46°57' E 031°59'0 0.0
2018-Jul-14 15:29N 46°57' E 031°59'0 0.0
2018-Jul-14 14:59N 46°57' E 031°59'0 0.0
2018-Jul-14 14:29N 46°57' E 031°59'0 0.0
2018-Jul-14 13:29N 46°57' E 031°59'0 0.0
2018-Jul-14 12:59N 46°57' E 031°59'0 0.0
2018-Jul-14 12:29N 46°57' E 031°59'0 0.0
2018-Jul-14 11:59N 46°57' E 031°59'0 0.0
2018-Jul-14 11:29N 46°57' E 031°59'0 0.0
2018-Jul-14 10:59N 46°57' E 031°59'0 0.0
2018-Jul-14 10:29N 46°57' E 031°59'0 0.0
2018-Jul-14 09:59N 46°57' E 031°59'0 0.0
2018-Jul-14 09:29N 46°57' E 031°59'0 0.0
2018-Jul-14 08:59N 46°57' E 031°59'0 0.0
2018-Jul-14 08:29N 46°57' E 031°59'0 0.0
2018-Jul-14 07:59N 46°57' E 031°59'0 0.0
2018-Jul-14 07:29N 46°57' E 031°59'0 0.0
2018-Jul-14 06:59N 46°57' E 031°59'0 0.0
2018-Jul-14 06:29N 46°57' E 031°59'0 0.0
2018-Jul-14 05:59N 46°57' E 031°59'0 0.0
2018-Jul-14 05:29N 46°57' E 031°59'0 0.0
2018-Jul-14 04:59N 46°57' E 031°59'0 0.0
2018-Jul-14 04:29N 46°57' E 031°59'0 0.0
2018-Jul-14 03:59N 46°57' E 031°59'0 0.0
2018-Jul-14 03:29N 46°57' E 031°59'0 0.0
2018-Jul-14 02:59N 46°57' E 031°59'0 0.0
2018-Jul-14 02:29N 46°57' E 031°59'0 0.0
2018-Jul-14 01:59N 46°57' E 031°59'0 0.0
2018-Jul-14 01:29N 46°57' E 031°59'0 0.0
2018-Jul-14 00:59N 46°57' E 031°59'0 0.0
2018-Jul-14 00:29N 46°57' E 031°59'0 0.0
2018-Jul-13 23:59N 46°57' E 031°59'0 0.0
2018-Jul-13 23:29N 46°57' E 031°59'0 0.0
2018-Jul-13 22:59N 46°57' E 031°59'0 0.0
2018-Jul-13 22:29N 46°57' E 031°59'0 0.0
2018-Jul-13 21:59N 46°57' E 031°59'0 0.0
2018-Jul-13 21:29N 46°57' E 031°59'0 0.0
2018-Jul-13 20:59N 46°57' E 031°59'0 0.0
2018-Jul-13 20:29N 46°57' E 031°59'0 0.0
2018-Jul-13 19:59N 46°57' E 031°59'0 0.0
2018-Jul-13 19:29N 46°57' E 031°59'0 0.0
2018-Jul-13 18:59N 46°57' E 031°59'0 0.0
2018-Jul-13 18:29N 46°57' E 031°59'0 0.0
2018-Jul-13 17:59N 46°57' E 031°59'0 0.0
2018-Jul-13 17:29N 46°57' E 031°59'0 0.0
2018-Jul-13 16:59N 46°57' E 031°59'0 0.0
2018-Jul-13 16:29N 46°57' E 031°59'0 0.0
2018-Jul-13 15:56N 46°57' E 031°59'0 0.0
2018-Jul-13 15:29N 46°57' E 031°59'0 0.0
2018-Jul-13 14:59N 46°57' E 031°59'0 0.0
2018-Jul-13 14:29N 46°57' E 031°59'0 0.0
2018-Jul-13 13:29N 46°57' E 031°59'0 0.0
2018-Jul-13 12:56N 46°57' E 031°59'0 0.0
2018-Jul-13 12:29N 46°57' E 031°59'0 0.0
2018-Jul-13 11:59N 46°57' E 031°59'0 0.0
2018-Jul-13 11:29N 46°57' E 031°59'0 0.0
2018-Jul-13 10:53N 46°57' E 031°59'0 0.0
2018-Jul-13 10:29N 46°57' E 031°59'0 0.0
2018-Jul-13 09:59N 46°57' E 031°59'0 0.0
2018-Jul-13 09:29N 46°57' E 031°59'0 0.0
2018-Jul-13 08:59N 46°57' E 031°59'0 0.0
2018-Jul-13 08:29N 46°57' E 031°59'0 0.0
2018-Jul-13 07:59N 46°57' E 031°59'0 0.0
2018-Jul-13 07:29N 46°57' E 031°59'0 0.0
2018-Jul-13 06:59N 46°57' E 031°59'0 0.0
2018-Jul-13 06:29N 46°57' E 031°59'0 0.0
2018-Jul-13 05:59N 46°57' E 031°59'0 0.0
2018-Jul-13 05:29N 46°57' E 031°59'0 0.0
2018-Jul-13 04:59N 46°57' E 031°59'0 0.0
2018-Jul-13 04:29N 46°57' E 031°59'0 0.0
2018-Jul-13 03:59N 46°57' E 031°59'0 0.0
2018-Jul-13 03:29N 46°57' E 031°59'0 0.0
2018-Jul-13 03:00N 46°57' E 031°59'0 0.0
2018-Jul-13 02:29N 46°57' E 031°59'0 0.0
2018-Jul-13 01:59N 46°57' E 031°59'0 0.0
2018-Jul-13 01:29N 46°57' E 031°59'0 0.0
2018-Jul-13 00:59N 46°57' E 031°59'0 0.0
2018-Jul-13 00:29N 46°57' E 031°59'0 0.0
2018-Jul-12 23:59N 46°57' E 031°59'0 0.0
2018-Jul-12 23:29N 46°57' E 031°59'0 0.0
2018-Jul-12 22:59N 46°57' E 031°59'0 0.0
2018-Jul-12 22:29N 46°57' E 031°59'0 0.0
2018-Jul-12 21:59N 46°57' E 031°59'0 0.0
2018-Jul-12 21:29N 46°57' E 031°59'0 0.0
2018-Jul-12 20:59N 46°57' E 031°59'0 0.0
2018-Jul-12 20:29N 46°57' E 031°59'0 0.0
2018-Jul-12 19:59N 46°57' E 031°59'25 1.3
2018-Jul-12 00:50N 46°38' E 031°35'0 0.0
2018-Jul-12 00:30N 46°38' E 031°35'0 0.0
2018-Jul-12 00:00N 46°38' E 031°35'6 0.4
2018-Jul-11 09:47N 46°36' E 031°43'3 7.2
2018-Jul-11 09:19N 46°36' E 031°48'3 7.1
2018-Jul-11 08:50N 46°37' E 031°53'2 7.1
2018-Jul-11 08:30N 46°39' E 031°55'3 7.0
2018-Jul-11 08:00N 46°42' E 031°56'3 6.5
2018-Jul-11 07:30N 46°45' E 031°54'4 7.0
2018-Jul-11 07:00N 46°49' E 031°54'4 7.6
2018-Jul-11 06:30N 46°51' E 031°58'4 7.5
2018-Jul-11 06:00N 46°54' E 032°01'2 4.6
2018-Jul-11 05:29N 46°57' E 031°59'0 0.2
2018-Jul-11 05:00N 46°57' E 031°59'0 0.0
2018-Jul-11 04:30N 46°57' E 031°59'0 0.0
2018-Jul-11 04:00N 46°57' E 031°59'0 0.0
2018-Jul-11 03:30N 46°57' E 031°59'0 0.0
2018-Jul-11 02:59N 46°57' E 031°59'0 0.0
2018-Jul-11 02:30N 46°57' E 031°59'0 0.0
2018-Jul-11 02:00N 46°57' E 031°59'0 0.0
2018-Jul-11 01:29N 46°57' E 031°59'0 0.0
2018-Jul-11 00:59N 46°57' E 031°59'0 0.0
2018-Jul-11 00:30N 46°57' E 031°59'0 0.0
2018-Jul-11 00:00N 46°57' E 031°59'0 0.0
2018-Jul-10 23:31N 46°57' E 031°59'0 0.0
2018-Jul-10 23:00N 46°57' E 031°59'0 0.0
2018-Jul-10 22:30N 46°57' E 031°59'0 0.0
2018-Jul-10 22:00N 46°57' E 031°59'0 0.0
2018-Jul-10 21:31N 46°57' E 031°59'0 0.0
2018-Jul-10 21:00N 46°57' E 031°59'0 0.0
2018-Jul-10 20:30N 46°57' E 031°59'0 0.0
2018-Jul-10 19:59N 46°57' E 031°59'0 0.0
2018-Jul-10 19:30N 46°57' E 031°59'0 0.0
2018-Jul-10 19:00N 46°57' E 031°59'0 0.0
2018-Jul-10 18:30N 46°57' E 031°59'0 0.0
2018-Jul-10 18:00N 46°57' E 031°59'0 0.0
2018-Jul-10 17:30N 46°57' E 031°59'0 0.0
2018-Jul-10 17:00N 46°57' E 031°59'0 0.0
2018-Jul-10 16:30N 46°57' E 031°59'0 0.0
2018-Jul-10 16:00N 46°57' E 031°59'0 0.1
2018-Jul-10 15:30N 46°57' E 031°59'2 4.7
2018-Jul-10 15:00N 46°54' E 032°01'4 7.6
2018-Jul-10 14:29N 46°51' E 031°57'4 7.6
2018-Jul-10 14:00N 46°49' E 031°54'4 7.0
2018-Jul-10 13:30N 46°45' E 031°54'4 6.7
2018-Jul-10 12:54N 46°41' E 031°56'3 7.3
2018-Jul-10 12:30N 46°39' E 031°55'6 7.5
2018-Jul-10 11:44N 46°36' E 031°48'2 7.3
2018-Jul-10 11:30N 46°36' E 031°45'7 1.1
2018-Jul-10 04:39N 46°38' E 031°35'0 0.0
2018-Jul-10 04:27N 46°38' E 031°35'0 0.0
2018-Jul-10 03:57N 46°38' E 031°35'0 0.0
2018-Jul-10 03:27N 46°38' E 031°35'2 0.2
2018-Jul-09 16:11N 46°36' E 031°36'4 6.8
2018-Jul-09 15:34N 46°36' E 031°42'1 7.0
2018-Jul-09 15:29N 46°36' E 031°43'3 6.9
2018-Jul-09 14:59N 46°36' E 031°48'3 6.8
2018-Jul-09 14:30N 46°37' E 031°52'3 6.4
2018-Jul-09 14:00N 46°39' E 031°56'3 6.5
2018-Jul-09 13:30N 46°43' E 031°56'3 6.3
2018-Jul-09 13:01N 46°45' E 031°54'3 6.9
2018-Jul-09 12:30N 46°49' E 031°54'4 7.2
2018-Jul-09 12:00N 46°51' E 031°57'4 7.3
2018-Jul-09 11:30N 46°54' E 032°01'2 4.8
2018-Jul-09 11:00N 46°57' E 031°59'  
Track history (hours):
 
Tides and Currents Weather Stations Pressure Air Temp Water Temp Dewpoint Dewpoint Depression Visibility Wind Speed Wind Dir Waves Ship Positions

Dnipro Lpg

Last reported at 2018-Jul-18 06:01 UTC. Time now 2018-Jul-19 01:38 UTC.
Position N 45°23' E 029°36'.

Length 92 m; draft 2.8 m.

Type: Ship (hazmat cat A). MMSI: 272773000.

Date/timePositionNaut miles runAvg speedWind from/ knotsBaromVisibWave heightAir tempDewpointWater temp
2018-Jul-18 06:01N 45°23' E 029°36'0 1.4
2018-Jul-18 05:57N 45°23' E 029°36'2 4.8
2018-Jul-18 05:30N 45°21' E 029°38'3 5.1
2018-Jul-18 04:57N 45°21' E 029°42'3 5.6
2018-Jul-18 04:30N 45°20' E 029°46'20 6.6
2018-Jul-18 01:29N 45°34' E 030°06'25 7.2
2018-Jul-17 22:00N 45°54' E 030°29'3 6.8
2018-Jul-17 21:30N 45°57' E 030°32'3 6.9
2018-Jul-17 21:00N 45°59' E 030°35'6 6.6
2018-Jul-17 20:06N 46°03' E 030°41'2 6.5
2018-Jul-17 19:50N 46°05' E 030°43'4 6.4
2018-Jul-17 19:08N 46°08' E 030°46'1 6.5
2018-Jul-17 18:59N 46°09' E 030°47'5 6.8
2018-Jul-17 18:15N 46°13' E 030°52'2 6.9
2018-Jul-17 18:00N 46°14' E 030°53'3 7.0
2018-Jul-17 17:30N 46°17' E 030°56'4 7.2
2018-Jul-17 17:00N 46°20' E 030°59'6 7.2
2018-Jul-17 16:07N 46°25' E 031°05'1 7.4
2018-Jul-17 16:00N 46°25' E 031°06'5 7.3
2018-Jul-17 15:16N 46°28' E 031°13'2 7.3
2018-Jul-17 14:58N 46°30' E 031°15'24 6.2
2018-Jul-17 11:04N 46°36' E 031°49'1 6.6
2018-Jul-17 10:58N 46°36' E 031°50'3 6.4
2018-Jul-17 10:30N 46°38' E 031°54'3 6.1
2018-Jul-17 10:00N 46°40' E 031°56'3 6.5
2018-Jul-17 09:30N 46°44' E 031°56'3 6.5
2018-Jul-17 09:00N 46°46' E 031°53'3 6.6
2018-Jul-17 08:30N 46°49' E 031°55'3 6.9
2018-Jul-17 08:00N 46°52' E 031°58'3 6.9
2018-Jul-17 07:30N 46°55' E 032°01'2 4.2
2018-Jul-17 07:01N 46°57' E 031°59'0 0.1
2018-Jul-17 06:28N 46°57' E 031°59'0 0.0
2018-Jul-17 05:59N 46°57' E 031°59'0 0.0
2018-Jul-17 05:29N 46°57' E 031°59'0 0.0
2018-Jul-17 04:59N 46°57' E 031°59'0 0.0
2018-Jul-17 04:29N 46°57' E 031°59'0 0.0
2018-Jul-17 03:59N 46°57' E 031°59'0 0.0
2018-Jul-17 03:29N 46°57' E 031°59'0 0.0
2018-Jul-17 02:59N 46°57' E 031°59'0 0.0
2018-Jul-17 02:29N 46°57' E 031°59'0 0.0
2018-Jul-17 01:59N 46°57' E 031°59'0 0.0
2018-Jul-17 01:29N 46°57' E 031°59'0 0.0
2018-Jul-17 00:59N 46°57' E 031°59'0 0.0
2018-Jul-17 00:29N 46°57' E 031°59'0 0.0
2018-Jul-16 23:29N 46°57' E 031°59'0 0.0
2018-Jul-16 22:59N 46°57' E 031°59'0 0.0
2018-Jul-16 22:29N 46°57' E 031°59'0 0.0
2018-Jul-16 21:59N 46°57' E 031°59'0 0.0
2018-Jul-16 21:29N 46°57' E 031°59'0 0.0
2018-Jul-16 20:59N 46°57' E 031°59'0 0.0
2018-Jul-16 20:29N 46°57' E 031°59'0 0.0
2018-Jul-16 19:59N 46°57' E 031°59'0 0.0
2018-Jul-16 19:29N 46°57' E 031°59'0 0.0
2018-Jul-16 18:59N 46°57' E 031°59'0 0.0
2018-Jul-16 18:29N 46°57' E 031°59'0 0.0
2018-Jul-16 17:59N 46°57' E 031°59'0 0.0
2018-Jul-16 17:29N 46°57' E 031°59'0 0.0
2018-Jul-16 16:59N 46°57' E 031°59'0 0.0
2018-Jul-16 16:29N 46°57' E 031°59'0 0.0
2018-Jul-16 15:59N 46°57' E 031°59'0 0.0
2018-Jul-16 15:29N 46°57' E 031°59'0 0.0
2018-Jul-16 14:59N 46°57' E 031°59'0 0.0
2018-Jul-16 14:29N 46°57' E 031°59'0 0.0
2018-Jul-16 13:53N 46°57' E 031°59'0 0.0
2018-Jul-16 13:29N 46°57' E 031°59'0 0.0
2018-Jul-16 12:59N 46°57' E 031°59'0 0.0
2018-Jul-16 12:29N 46°57' E 031°59'0 0.0
2018-Jul-16 11:59N 46°57' E 031°59'0 0.0
2018-Jul-16 11:29N 46°57' E 031°59'0 0.0
2018-Jul-16 10:59N 46°57' E 031°59'0 0.0
2018-Jul-16 10:29N 46°57' E 031°59'0 0.0
2018-Jul-16 09:59N 46°57' E 031°59'0 0.0
2018-Jul-16 09:29N 46°57' E 031°59'0 0.0
2018-Jul-16 08:59N 46°57' E 031°59'0 0.0
2018-Jul-16 08:29N 46°57' E 031°59'0 0.0
2018-Jul-16 07:59N 46°57' E 031°59'0 0.0
2018-Jul-16 07:29N 46°57' E 031°59'0 0.0
2018-Jul-16 06:59N 46°57' E 031°59'0 0.0
2018-Jul-16 06:29N 46°57' E 031°59'0 0.0
2018-Jul-16 05:59N 46°57' E 031°59'0 0.0
2018-Jul-16 05:29N 46°57' E 031°59'0 0.0
2018-Jul-16 04:59N 46°57' E 031°59'0 0.0
2018-Jul-16 04:29N 46°57' E 031°59'0 0.0
2018-Jul-16 03:59N 46°57' E 031°59'0 0.0
2018-Jul-16 03:29N 46°57' E 031°59'0 0.0
2018-Jul-16 02:59N 46°57' E 031°59'0 0.0
2018-Jul-16 02:29N 46°57' E 031°59'0 0.0
2018-Jul-16 01:59N 46°57' E 031°59'0 0.0
2018-Jul-16 01:29N 46°57' E 031°59'0 0.0
2018-Jul-16 00:59N 46°57' E 031°59'0 0.0
2018-Jul-16 00:29N 46°57' E 031°59'0 0.0
2018-Jul-15 23:59N 46°57' E 031°59'0 0.0
2018-Jul-15 23:29N 46°57' E 031°59'0 0.0
2018-Jul-15 22:56N 46°57' E 031°59'0 0.0
2018-Jul-15 22:29N 46°57' E 031°59'0 0.0
2018-Jul-15 21:59N 46°57' E 031°59'0 0.0
2018-Jul-15 21:29N 46°57' E 031°59'0 0.0
2018-Jul-15 20:59N 46°57' E 031°59'0 0.0
2018-Jul-15 20:29N 46°57' E 031°59'0 0.0
2018-Jul-15 19:59N 46°57' E 031°59'0 0.0
2018-Jul-15 19:29N 46°57' E 031°59'0 0.0
2018-Jul-15 18:59N 46°57' E 031°59'0 0.0
2018-Jul-15 18:29N 46°57' E 031°59'0 0.0
2018-Jul-15 17:59N 46°57' E 031°59'0 0.0
2018-Jul-15 17:29N 46°57' E 031°59'0 0.0
2018-Jul-15 16:59N 46°57' E 031°59'0 0.0
2018-Jul-15 16:29N 46°57' E 031°59'0 0.0
2018-Jul-15 15:59N 46°57' E 031°59'0 0.0
2018-Jul-15 15:29N 46°57' E 031°59'0 0.0
2018-Jul-15 14:59N 46°57' E 031°59'0 0.0
2018-Jul-15 14:23N 46°57' E 031°59'0 0.0
2018-Jul-15 13:59N 46°57' E 031°59'0 0.0
2018-Jul-15 13:29N 46°57' E 031°59'0 0.0
2018-Jul-15 12:59N 46°57' E 031°59'0 0.0
2018-Jul-15 12:29N 46°57' E 031°59'0 0.0
2018-Jul-15 11:59N 46°57' E 031°59'0 0.0
2018-Jul-15 11:26N 46°57' E 031°59'0 0.0
2018-Jul-15 10:59N 46°57' E 031°59'0 0.0
2018-Jul-15 10:29N 46°57' E 031°59'0 0.0
2018-Jul-15 09:53N 46°57' E 031°59'0 0.0
2018-Jul-15 09:29N 46°57' E 031°59'0 0.0
2018-Jul-15 08:59N 46°57' E 031°59'0 0.0
2018-Jul-15 08:29N 46°57' E 031°59'0 0.0
2018-Jul-15 07:59N 46°57' E 031°59'0 0.0
2018-Jul-15 07:29N 46°57' E 031°59'0 0.0
2018-Jul-15 06:59N 46°57' E 031°59'0 0.0
2018-Jul-15 06:29N 46°57' E 031°59'0 0.0
2018-Jul-15 05:59N 46°57' E 031°59'0 0.0
2018-Jul-15 05:29N 46°57' E 031°59'0 0.0
2018-Jul-15 04:59N 46°57' E 031°59'0 0.0
2018-Jul-15 04:29N 46°57' E 031°59'0 0.0
2018-Jul-15 03:59N 46°57' E 031°59'0 0.0
2018-Jul-15 03:29N 46°57' E 031°59'0 0.0
2018-Jul-15 02:59N 46°57' E 031°59'0 0.0
2018-Jul-15 02:29N 46°57' E 031°59'0 0.0
2018-Jul-15 01:59N 46°57' E 031°59'0 0.0
2018-Jul-15 01:29N 46°57' E 031°59'0 0.0
2018-Jul-15 00:59N 46°57' E 031°59'0 0.0
2018-Jul-15 00:29N 46°57' E 031°59'0 0.0
2018-Jul-14 23:59N 46°57' E 031°59'0 0.0
2018-Jul-14 23:29N 46°57' E 031°59'0 0.0
2018-Jul-14 22:59N 46°57' E 031°59'0 0.0
2018-Jul-14 22:29N 46°57' E 031°59'0 0.0
2018-Jul-14 21:59N 46°57' E 031°59'0 0.0
2018-Jul-14 21:29N 46°57' E 031°59'0 0.0
2018-Jul-14 20:59N 46°57' E 031°59'0 0.0
2018-Jul-14 20:29N 46°57' E 031°59'0 0.0
2018-Jul-14 19:59N 46°57' E 031°59'0 0.0
2018-Jul-14 19:29N 46°57' E 031°59'0 0.0
2018-Jul-14 18:59N 46°57' E 031°59'0 0.0
2018-Jul-14 18:29N 46°57' E 031°59'0 0.0
2018-Jul-14 17:59N 46°57' E 031°59'0 0.0
2018-Jul-14 17:29N 46°57' E 031°59'0 0.0
2018-Jul-14 16:59N 46°57' E 031°59'0 0.0
2018-Jul-14 16:29N 46°57' E 031°59'0 0.0
2018-Jul-14 15:59N 46°57' E 031°59'0 0.0
2018-Jul-14 15:29N 46°57' E 031°59'0 0.0
2018-Jul-14 14:59N 46°57' E 031°59'0 0.0
2018-Jul-14 14:29N 46°57' E 031°59'0 0.0
2018-Jul-14 13:29N 46°57' E 031°59'0 0.0
2018-Jul-14 12:59N 46°57' E 031°59'0 0.0
2018-Jul-14 12:29N 46°57' E 031°59'0 0.0
2018-Jul-14 11:59N 46°57' E 031°59'0 0.0
2018-Jul-14 11:29N 46°57' E 031°59'0 0.0
2018-Jul-14 10:59N 46°57' E 031°59'0 0.0
2018-Jul-14 10:29N 46°57' E 031°59'0 0.0
2018-Jul-14 09:59N 46°57' E 031°59'0 0.0
2018-Jul-14 09:29N 46°57' E 031°59'0 0.0
2018-Jul-14 08:59N 46°57' E 031°59'0 0.0
2018-Jul-14 08:29N 46°57' E 031°59'0 0.0
2018-Jul-14 07:59N 46°57' E 031°59'0 0.0
2018-Jul-14 07:29N 46°57' E 031°59'0 0.0
2018-Jul-14 06:59N 46°57' E 031°59'0 0.0
2018-Jul-14 06:29N 46°57' E 031°59'0 0.0
2018-Jul-14 05:59N 46°57' E 031°59'0 0.0
2018-Jul-14 05:29N 46°57' E 031°59'0 0.0
2018-Jul-14 04:59N 46°57' E 031°59'0 0.0
2018-Jul-14 04:29N 46°57' E 031°59'0 0.0
2018-Jul-14 03:59N 46°57' E 031°59'0 0.0
2018-Jul-14 03:29N 46°57' E 031°59'0 0.0
2018-Jul-14 02:59N 46°57' E 031°59'0 0.0
2018-Jul-14 02:29N 46°57' E 031°59'0 0.0
2018-Jul-14 01:59N 46°57' E 031°59'0 0.0
2018-Jul-14 01:29N 46°57' E 031°59'0 0.0
2018-Jul-14 00:59N 46°57' E 031°59'0 0.0
2018-Jul-14 00:29N 46°57' E 031°59'0 0.0
2018-Jul-13 23:59N 46°57' E 031°59'0 0.0
2018-Jul-13 23:29N 46°57' E 031°59'0 0.0
2018-Jul-13 22:59N 46°57' E 031°59'0 0.0
2018-Jul-13 22:29N 46°57' E 031°59'0 0.0
2018-Jul-13 21:59N 46°57' E 031°59'0 0.0
2018-Jul-13 21:29N 46°57' E 031°59'0 0.0
2018-Jul-13 20:59N 46°57' E 031°59'0 0.0
2018-Jul-13 20:29N 46°57' E 031°59'0 0.0
2018-Jul-13 19:59N 46°57' E 031°59'0 0.0
2018-Jul-13 19:29N 46°57' E 031°59'0 0.0
2018-Jul-13 18:59N 46°57' E 031°59'0 0.0
2018-Jul-13 18:29N 46°57' E 031°59'0 0.0
2018-Jul-13 17:59N 46°57' E 031°59'0 0.0
2018-Jul-13 17:29N 46°57' E 031°59'0 0.0
2018-Jul-13 16:59N 46°57' E 031°59'0 0.0
2018-Jul-13 16:29N 46°57' E 031°59'0 0.0
2018-Jul-13 15:56N 46°57' E 031°59'0 0.0
2018-Jul-13 15:29N 46°57' E 031°59'0 0.0
2018-Jul-13 14:59N 46°57' E 031°59'0 0.0
2018-Jul-13 14:29N 46°57' E 031°59'0 0.0
2018-Jul-13 13:29N 46°57' E 031°59'0 0.0
2018-Jul-13 12:56N 46°57' E 031°59'0 0.0
2018-Jul-13 12:29N 46°57' E 031°59'0 0.0
2018-Jul-13 11:59N 46°57' E 031°59'0 0.0
2018-Jul-13 11:29N 46°57' E 031°59'0 0.0
2018-Jul-13 10:53N 46°57' E 031°59'0 0.0
2018-Jul-13 10:29N 46°57' E 031°59'0 0.0
2018-Jul-13 09:59N 46°57' E 031°59'0 0.0
2018-Jul-13 09:29N 46°57' E 031°59'0 0.0
2018-Jul-13 08:59N 46°57' E 031°59'0 0.0
2018-Jul-13 08:29N 46°57' E 031°59'0 0.0
2018-Jul-13 07:59N 46°57' E 031°59'0 0.0
2018-Jul-13 07:29N 46°57' E 031°59'0 0.0
2018-Jul-13 06:59N 46°57' E 031°59'0 0.0
2018-Jul-13 06:29N 46°57' E 031°59'0 0.0
2018-Jul-13 05:59N 46°57' E 031°59'0 0.0
2018-Jul-13 05:29N 46°57' E 031°59'0 0.0
2018-Jul-13 04:59N 46°57' E 031°59'0 0.0
2018-Jul-13 04:29N 46°57' E 031°59'0 0.0
2018-Jul-13 03:59N 46°57' E 031°59'0 0.0
2018-Jul-13 03:29N 46°57' E 031°59'0 0.0
2018-Jul-13 03:00N 46°57' E 031°59'0 0.0
2018-Jul-13 02:29N 46°57' E 031°59'0 0.0
2018-Jul-13 01:59N 46°57' E 031°59'0 0.0
2018-Jul-13 01:29N 46°57' E 031°59'0 0.0
2018-Jul-13 00:59N 46°57' E 031°59'0 0.0
2018-Jul-13 00:29N 46°57' E 031°59'0 0.0
2018-Jul-12 23:59N 46°57' E 031°59'0 0.0
2018-Jul-12 23:29N 46°57' E 031°59'0 0.0
2018-Jul-12 22:59N 46°57' E 031°59'0 0.0
2018-Jul-12 22:29N 46°57' E 031°59'0 0.0
2018-Jul-12 21:59N 46°57' E 031°59'0 0.0
2018-Jul-12 21:29N 46°57' E 031°59'0 0.0
2018-Jul-12 20:59N 46°57' E 031°59'0 0.0
2018-Jul-12 20:29N 46°57' E 031°59'0 0.0
2018-Jul-12 19:59N 46°57' E 031°59'25 1.3
2018-Jul-12 00:50N 46°38' E 031°35'0 0.0
2018-Jul-12 00:30N 46°38' E 031°35'0 0.0
2018-Jul-12 00:00N 46°38' E 031°35'6 0.4
2018-Jul-11 09:47N 46°36' E 031°43'3 7.2
2018-Jul-11 09:19N 46°36' E 031°48'3 7.1
2018-Jul-11 08:50N 46°37' E 031°53'2 7.1
2018-Jul-11 08:30N 46°39' E 031°55'3 7.0
2018-Jul-11 08:00N 46°42' E 031°56'3 6.5
2018-Jul-11 07:30N 46°45' E 031°54'4 7.0
2018-Jul-11 07:00N 46°49' E 031°54'4 7.6
2018-Jul-11 06:30N 46°51' E 031°58'4 7.5
2018-Jul-11 06:00N 46°54' E 032°01'2 4.6
2018-Jul-11 05:29N 46°57' E 031°59'0 0.2
2018-Jul-11 05:00N 46°57' E 031°59'0 0.0
2018-Jul-11 04:30N 46°57' E 031°59'0 0.0
2018-Jul-11 04:00N 46°57' E 031°59'0 0.0
2018-Jul-11 03:30N 46°57' E 031°59'0 0.0
2018-Jul-11 02:59N 46°57' E 031°59'0 0.0
2018-Jul-11 02:30N 46°57' E 031°59'0 0.0
2018-Jul-11 02:00N 46°57' E 031°59'0 0.0
2018-Jul-11 01:29N 46°57' E 031°59'0 0.0
2018-Jul-11 00:59N 46°57' E 031°59'0 0.0
2018-Jul-11 00:30N 46°57' E 031°59'0 0.0
2018-Jul-11 00:00N 46°57' E 031°59'0 0.0
2018-Jul-10 23:31N 46°57' E 031°59'0 0.0
2018-Jul-10 23:00N 46°57' E 031°59'0 0.0
2018-Jul-10 22:30N 46°57' E 031°59'0 0.0
2018-Jul-10 22:00N 46°57' E 031°59'0 0.0
2018-Jul-10 21:31N 46°57' E 031°59'0 0.0
2018-Jul-10 21:00N 46°57' E 031°59'0 0.0
2018-Jul-10 20:30N 46°57' E 031°59'0 0.0
2018-Jul-10 19:59N 46°57' E 031°59'0 0.0
2018-Jul-10 19:30N 46°57' E 031°59'0 0.0
2018-Jul-10 19:00N 46°57' E 031°59'0 0.0
2018-Jul-10 18:30N 46°57' E 031°59'0 0.0
2018-Jul-10 18:00N 46°57' E 031°59'0 0.0
2018-Jul-10 17:30N 46°57' E 031°59'0 0.0
2018-Jul-10 17:00N 46°57' E 031°59'0 0.0
2018-Jul-10 16:30N 46°57' E 031°59'0 0.0
2018-Jul-10 16:00N 46°57' E 031°59'0 0.1
2018-Jul-10 15:30N 46°57' E 031°59'2 4.7
2018-Jul-10 15:00N 46°54' E 032°01'4 7.6
2018-Jul-10 14:29N 46°51' E 031°57'4 7.6
2018-Jul-10 14:00N 46°49' E 031°54'4 7.0
2018-Jul-10 13:30N 46°45' E 031°54'4 6.7
2018-Jul-10 12:54N 46°41' E 031°56'3 7.3
2018-Jul-10 12:30N 46°39' E 031°55'6 7.5
2018-Jul-10 11:44N 46°36' E 031°48'2 7.3
2018-Jul-10 11:30N 46°36' E 031°45'7 1.1
2018-Jul-10 04:39N 46°38' E 031°35'0 0.0
2018-Jul-10 04:27N 46°38' E 031°35'0 0.0
2018-Jul-10 03:57N 46°38' E 031°35'0 0.0
2018-Jul-10 03:27N 46°38' E 031°35'2 0.2
2018-Jul-09 16:11N 46°36' E 031°36'4 6.8
2018-Jul-09 15:34N 46°36' E 031°42'1 7.0
2018-Jul-09 15:29N 46°36' E 031°43'3 6.9
2018-Jul-09 14:59N 46°36' E 031°48'3 6.8
2018-Jul-09 14:30N 46°37' E 031°52'3 6.4
2018-Jul-09 14:00N 46°39' E 031°56'3 6.5
2018-Jul-09 13:30N 46°43' E 031°56'3 6.3
2018-Jul-09 13:01N 46°45' E 031°54'3 6.9
2018-Jul-09 12:30N 46°49' E 031°54'4 7.2
2018-Jul-09 12:00N 46°51' E 031°57'4 7.3
2018-Jul-09 11:30N 46°54' E 032°01'2 4.8
2018-Jul-09 11:00N 46°57' E 031°59'  

Dump ship's entire track history